ABG7140 UMKK-ULLI
Flight info
| Callsign | ABG7140 |
|---|---|
| Flight time | 1h 27m |
| Altitude | 33000 |
| Route | PELUG3N PELUG DCT KEDUX DCT PIVAX DCT PINIX DCT PIRUX DCT PISIM DCT PIDIN DCT ARANS/K0807F330 DCT PISIS DCT AKARU AKARU1B |
| Aircraft | B738/M-SDE2E3FGHIRWXY/LB1 |
Departure
| Time | 2026-05-04 11:36 |
|---|---|
| Airport | Khrabrovo Airport (UMKK) |
Arrival
| Time | 2026-05-04 13:03 |
|---|---|
| Airport | Pulkovo Airport (ULLI) |
| Time | Latitude | Longitude | Altitude | Speed | Heading |
|---|---|---|---|---|---|
| 2026-05-04 11:08 | 54.88385 | 20.58524 | 26 ft | 0 kts | 155° |
| 2026-05-04 11:27 | 54.88422 | 20.58422 | 26 ft | 0 kts | 65° |
| 2026-05-04 11:31 | 54.88685 | 20.58798 | 29 ft | 14 kts | 60° |
| 2026-05-04 11:33 | 54.89300 | 20.60379 | 21 ft | 25 kts | 65° |
| 2026-05-04 11:33 | 54.89369 | 20.60650 | 22 ft | 24 kts | 68° |
| 2026-05-04 11:33 | 54.89434 | 20.60904 | 20 ft | 23 kts | 63° |
| 2026-05-04 11:34 | 54.89498 | 20.61149 | 21 ft | 22 kts | 64° |
| 2026-05-04 11:34 | 54.89562 | 20.61394 | 20 ft | 23 kts | 66° |
| 2026-05-04 11:34 | 54.89628 | 20.61649 | 24 ft | 24 kts | 65° |
| 2026-05-04 11:34 | 54.89699 | 20.61914 | 27 ft | 24 kts | 64° |
| 2026-05-04 11:35 | 54.89734 | 20.62183 | 25 ft | 13 kts | 74° |
| 2026-05-04 11:35 | 54.89756 | 20.62136 | 24 ft | 13 kts | 243° |
| 2026-05-04 11:35 | 54.89614 | 20.61589 | 22 ft | 90 kts | 246° |
| 2026-05-04 11:35 | 54.89392 | 20.60737 | 20 ft | 138 kts | 245° |
| 2026-05-04 11:36 | 54.88913 | 20.58886 | 210 ft | 186 kts | 247° |
| 2026-05-04 11:36 | 54.88427 | 20.56681 | 913 ft | 199 kts | 253° |
| 2026-05-04 11:36 | 54.88494 | 20.54260 | 1696 ft | 212 kts | 289° |
| 2026-05-04 11:36 | 54.89504 | 20.52210 | 2040 ft | 244 kts | 329° |
| 2026-05-04 11:37 | 54.91156 | 20.51100 | 2557 ft | 262 kts | 334° |
| 2026-05-04 11:37 | 54.92840 | 20.49813 | 3378 ft | 268 kts | 332° |
| 2026-05-04 11:37 | 54.94559 | 20.48541 | 4416 ft | 268 kts | 333° |
| 2026-05-04 11:37 | 54.96302 | 20.47290 | 5221 ft | 274 kts | 332° |
| 2026-05-04 11:38 | 54.98068 | 20.45982 | 6013 ft | 278 kts | 331° |
| 2026-05-04 11:38 | 54.99854 | 20.44611 | 6788 ft | 282 kts | 330° |
| 2026-05-04 11:38 | 55.01647 | 20.43190 | 7599 ft | 284 kts | 329° |
| 2026-05-04 11:38 | 55.03447 | 20.41736 | 8410 ft | 286 kts | 329° |
| 2026-05-04 11:39 | 55.05267 | 20.40245 | 9150 ft | 291 kts | 328° |
| 2026-05-04 11:39 | 55.07114 | 20.38722 | 9871 ft | 295 kts | 328° |
| 2026-05-04 11:40 | 55.19830 | 20.28706 | 13291 ft | 355 kts | 333° |
| 2026-05-04 11:41 | 55.22156 | 20.27146 | 13930 ft | 360 kts | 333° |
| 2026-05-04 11:41 | 55.24503 | 20.25572 | 14579 ft | 364 kts | 333° |
| 2026-05-04 11:41 | 55.26875 | 20.23969 | 15247 ft | 367 kts | 333° |
| 2026-05-04 11:41 | 55.29265 | 20.22344 | 15875 ft | 371 kts | 333° |
| 2026-05-04 11:42 | 55.31686 | 20.20687 | 16461 ft | 375 kts | 333° |
| 2026-05-04 11:42 | 55.34130 | 20.19007 | 17071 ft | 378 kts | 332° |
| 2026-05-04 11:42 | 55.36588 | 20.17312 | 17677 ft | 381 kts | 332° |
| 2026-05-04 11:42 | 55.39064 | 20.15599 | 18232 ft | 385 kts | 332° |
| 2026-05-04 11:43 | 55.41571 | 20.13861 | 18793 ft | 389 kts | 333° |
| 2026-05-04 11:43 | 55.44099 | 20.12107 | 19360 ft | 392 kts | 332° |
| 2026-05-04 11:43 | 55.46685 | 20.10309 | 19892 ft | 395 kts | 332° |
| 2026-05-04 11:43 | 55.49218 | 20.08545 | 20381 ft | 399 kts | 332° |
| 2026-05-04 11:44 | 55.51844 | 20.06714 | 20918 ft | 402 kts | 333° |
| 2026-05-04 11:44 | 55.54453 | 20.04896 | 21403 ft | 405 kts | 332° |
| 2026-05-04 11:44 | 55.57092 | 20.03051 | 21869 ft | 409 kts | 332° |
| 2026-05-04 11:44 | 55.59713 | 20.01215 | 22343 ft | 412 kts | 332° |
| 2026-05-04 11:45 | 55.62388 | 19.99338 | 22808 ft | 414 kts | 332° |
| 2026-05-04 11:45 | 55.65078 | 19.97448 | 23264 ft | 417 kts | 332° |
| 2026-05-04 11:45 | 55.67785 | 19.95545 | 23717 ft | 420 kts | 332° |
| 2026-05-04 11:45 | 55.70515 | 19.93622 | 24131 ft | 423 kts | 332° |
| 2026-05-04 11:46 | 55.73257 | 19.91687 | 24542 ft | 426 kts | 332° |
| 2026-05-04 11:46 | 55.76051 | 19.89712 | 24940 ft | 429 kts | 332° |
| 2026-05-04 11:46 | 55.78842 | 19.87736 | 25327 ft | 431 kts | 332° |
| 2026-05-04 11:46 | 55.81635 | 19.85759 | 25718 ft | 433 kts | 332° |
| 2026-05-04 11:47 | 55.84411 | 19.83789 | 26075 ft | 436 kts | 332° |
| 2026-05-04 11:47 | 55.87233 | 19.81782 | 26412 ft | 439 kts | 332° |
| 2026-05-04 11:47 | 55.90081 | 19.79756 | 26781 ft | 441 kts | 332° |
| 2026-05-04 11:47 | 55.92978 | 19.77691 | 27135 ft | 443 kts | 332° |
| 2026-05-04 11:48 | 55.95811 | 19.75667 | 27438 ft | 446 kts | 332° |
| 2026-05-04 11:48 | 55.98739 | 19.73571 | 27763 ft | 448 kts | 332° |
| 2026-05-04 11:48 | 56.01623 | 19.71504 | 28085 ft | 450 kts | 332° |
| 2026-05-04 11:48 | 56.04558 | 19.69397 | 28369 ft | 453 kts | 332° |
| 2026-05-04 11:49 | 56.07487 | 19.67293 | 28660 ft | 455 kts | 332° |
| 2026-05-04 11:49 | 56.10431 | 19.65175 | 28955 ft | 457 kts | 332° |
| 2026-05-04 11:49 | 56.13420 | 19.63020 | 29217 ft | 460 kts | 332° |
| 2026-05-04 11:49 | 56.16367 | 19.60891 | 29479 ft | 462 kts | 332° |
| 2026-05-04 11:50 | 56.19470 | 19.59181 | 29719 ft | 473 kts | 343° |
| 2026-05-04 11:50 | 56.22784 | 19.58565 | 29955 ft | 485 kts | 354° |
| 2026-05-04 11:50 | 56.26180 | 19.59101 | 30218 ft | 494 kts | 7° |
| 2026-05-04 11:50 | 56.29543 | 19.60473 | 30541 ft | 496 kts | 9° |
| 2026-05-04 11:51 | 56.32886 | 19.61997 | 30888 ft | 495 kts | 10° |
| 2026-05-04 11:51 | 56.36217 | 19.63552 | 31215 ft | 494 kts | 10° |
| 2026-05-04 11:51 | 56.39546 | 19.65086 | 31552 ft | 493 kts | 10° |
| 2026-05-04 11:51 | 56.42868 | 19.66583 | 31895 ft | 491 kts | 9° |
| 2026-05-04 11:52 | 56.46186 | 19.68046 | 32225 ft | 490 kts | 9° |
| 2026-05-04 11:52 | 56.49497 | 19.69486 | 32504 ft | 489 kts | 9° |
| 2026-05-04 11:52 | 56.52813 | 19.70919 | 32768 ft | 490 kts | 9° |
| 2026-05-04 11:52 | 56.56094 | 19.72339 | 33066 ft | 489 kts | 9° |
| 2026-05-04 11:53 | 56.59433 | 19.73788 | 33366 ft | 487 kts | 9° |
| 2026-05-04 11:53 | 56.62731 | 19.75224 | 33628 ft | 487 kts | 9° |
| 2026-05-04 11:53 | 56.66029 | 19.76664 | 33885 ft | 487 kts | 9° |
| 2026-05-04 11:53 | 56.69317 | 19.78104 | 34173 ft | 485 kts | 9° |
| 2026-05-04 11:55 | 56.92189 | 19.88191 | 35784 ft | 482 kts | 9° |
| 2026-05-04 11:55 | 56.95450 | 19.89639 | 36004 ft | 481 kts | 9° |
| 2026-05-04 11:56 | 56.98692 | 19.91082 | 36261 ft | 479 kts | 9° |
| 2026-05-04 11:56 | 57.01926 | 19.92565 | 36439 ft | 480 kts | 11° |
| 2026-05-04 11:56 | 57.05141 | 19.94227 | 36564 ft | 482 kts | 12° |
| 2026-05-04 11:56 | 57.08347 | 19.95999 | 36831 ft | 478 kts | 13° |
| 2026-05-04 11:57 | 57.11533 | 19.97797 | 36805 ft | 479 kts | 13° |
| 2026-05-04 11:57 | 57.17866 | 20.01357 | 36802 ft | 471 kts | 12° |
| 2026-05-04 11:58 | 57.24078 | 20.04797 | 36820 ft | 468 kts | 12° |
| 2026-05-04 11:58 | 57.30310 | 20.08223 | 36815 ft | 466 kts | 12° |
| 2026-05-04 11:59 | 57.36523 | 20.11643 | 36817 ft | 466 kts | 12° |
| 2026-05-04 11:59 | 57.42744 | 20.15083 | 36811 ft | 467 kts | 12° |
| 2026-05-04 12:00 | 57.48989 | 20.18553 | 36802 ft | 469 kts | 12° |
| 2026-05-04 12:00 | 57.55252 | 20.22045 | 36804 ft | 471 kts | 12° |
| 2026-05-04 12:01 | 57.61552 | 20.25574 | 36793 ft | 473 kts | 12° |
| 2026-05-04 12:02 | 57.83761 | 20.38101 | 36779 ft | 478 kts | 12° |
| 2026-05-04 12:03 | 57.90138 | 20.41729 | 36767 ft | 479 kts | 13° |
| 2026-05-04 12:03 | 57.96512 | 20.45369 | 36776 ft | 478 kts | 13° |
| 2026-05-04 12:04 | 58.02879 | 20.49019 | 36775 ft | 477 kts | 13° |
| 2026-05-04 12:04 | 58.09239 | 20.52677 | 36767 ft | 477 kts | 13° |
| 2026-05-04 12:05 | 58.15584 | 20.56342 | 36769 ft | 476 kts | 13° |
| 2026-05-04 12:05 | 58.21919 | 20.60014 | 36766 ft | 476 kts | 13° |
| 2026-05-04 12:06 | 58.28251 | 20.63699 | 36762 ft | 475 kts | 13° |
| 2026-05-04 12:06 | 58.34569 | 20.67405 | 36770 ft | 475 kts | 14° |
| 2026-05-04 12:07 | 58.40196 | 20.71159 | 36764 ft | 476 kts | 16° |
| 2026-05-04 12:07 | 58.45361 | 20.74808 | 36766 ft | 477 kts | 16° |
| 2026-05-04 12:08 | 58.51589 | 20.79182 | 36756 ft | 477 kts | 16° |
| 2026-05-04 12:08 | 58.57825 | 20.83513 | 36763 ft | 477 kts | 15° |
| 2026-05-04 12:09 | 58.64066 | 20.87840 | 36748 ft | 477 kts | 15° |
| 2026-05-04 12:09 | 58.70313 | 20.92189 | 36751 ft | 477 kts | 16° |
| 2026-05-04 12:10 | 58.76558 | 20.96557 | 36748 ft | 478 kts | 16° |
| 2026-05-04 12:10 | 58.82816 | 21.00949 | 36745 ft | 478 kts | 16° |
| 2026-05-04 12:11 | 58.89072 | 21.05360 | 36735 ft | 479 kts | 16° |
| 2026-05-04 12:11 | 58.95341 | 21.09796 | 36728 ft | 480 kts | 16° |
| 2026-05-04 12:12 | 59.01575 | 21.14446 | 36703 ft | 484 kts | 25° |
| 2026-05-04 12:12 | 59.04362 | 21.18140 | 36730 ft | 488 kts | 40° |
| 2026-05-04 12:12 | 59.06667 | 21.22995 | 36713 ft | 490 kts | 55° |
| 2026-05-04 12:14 | 59.18836 | 21.70282 | 36719 ft | 490 kts | 64° |
| 2026-05-04 12:15 | 59.21878 | 21.82206 | 36722 ft | 490 kts | 64° |
| 2026-05-04 12:15 | 59.24902 | 21.94132 | 36721 ft | 491 kts | 64° |
| 2026-05-04 12:16 | 59.27936 | 22.06174 | 36725 ft | 494 kts | 65° |
| 2026-05-04 12:16 | 59.30968 | 22.18271 | 36725 ft | 496 kts | 65° |
| 2026-05-04 12:17 | 59.34001 | 22.30448 | 36722 ft | 497 kts | 65° |
| 2026-05-04 12:17 | 59.37025 | 22.42661 | 36720 ft | 497 kts | 65° |
| 2026-05-04 12:18 | 59.40032 | 22.54869 | 36718 ft | 496 kts | 65° |
| 2026-05-04 12:18 | 59.43020 | 22.67068 | 36715 ft | 495 kts | 65° |
| 2026-05-04 12:19 | 59.45986 | 22.79248 | 36706 ft | 492 kts | 65° |
| 2026-05-04 12:19 | 59.48926 | 22.91379 | 36705 ft | 490 kts | 65° |
| 2026-05-04 12:20 | 59.51841 | 23.03472 | 36700 ft | 488 kts | 65° |
| 2026-05-04 12:20 | 59.54730 | 23.15543 | 36699 ft | 486 kts | 67° |
| 2026-05-04 12:21 | 59.56989 | 23.27958 | 36706 ft | 483 kts | 75° |
| 2026-05-04 12:21 | 59.58923 | 23.40643 | 36700 ft | 483 kts | 75° |
| 2026-05-04 12:22 | 59.60887 | 23.53435 | 36709 ft | 484 kts | 75° |
| 2026-05-04 12:22 | 59.62886 | 23.66190 | 36711 ft | 487 kts | 75° |
| 2026-05-04 12:23 | 59.64895 | 23.78994 | 36703 ft | 489 kts | 75° |
| 2026-05-04 12:23 | 59.66900 | 23.91872 | 36702 ft | 491 kts | 75° |
| 2026-05-04 12:24 | 59.68898 | 24.04826 | 36697 ft | 493 kts | 75° |
| 2026-05-04 12:24 | 59.70892 | 24.17849 | 36697 ft | 494 kts | 75° |
| 2026-05-04 12:25 | 59.72886 | 24.30974 | 36691 ft | 494 kts | 75° |
| 2026-05-04 12:25 | 59.74854 | 24.44008 | 36690 ft | 493 kts | 75° |
| 2026-05-04 12:26 | 59.76644 | 24.57038 | 36689 ft | 491 kts | 78° |
| 2026-05-04 12:26 | 59.78271 | 24.70196 | 36693 ft | 490 kts | 78° |
| 2026-05-04 12:27 | 59.79892 | 24.83331 | 36692 ft | 489 kts | 78° |
| 2026-05-04 12:27 | 59.81524 | 24.96422 | 36688 ft | 487 kts | 78° |
| 2026-05-04 12:28 | 59.83151 | 25.09509 | 36692 ft | 486 kts | 78° |
| 2026-05-04 12:28 | 59.84753 | 25.22496 | 36692 ft | 485 kts | 78° |
| 2026-05-04 12:29 | 59.86348 | 25.35563 | 36692 ft | 484 kts | 78° |
| 2026-05-04 12:29 | 59.87934 | 25.48689 | 36693 ft | 484 kts | 78° |
| 2026-05-04 12:30 | 59.89497 | 25.61736 | 36696 ft | 484 kts | 78° |
| 2026-05-04 12:30 | 59.91048 | 25.74799 | 36693 ft | 484 kts | 78° |
| 2026-05-04 12:31 | 59.92577 | 25.87804 | 36697 ft | 485 kts | 78° |
| 2026-05-04 12:31 | 59.94106 | 26.00909 | 36688 ft | 485 kts | 79° |
| 2026-05-04 12:32 | 59.96362 | 26.20524 | 36685 ft | 478 kts | 79° |
| 2026-05-04 12:32 | 59.97109 | 26.27078 | 36428 ft | 480 kts | 79° |
| 2026-05-04 12:33 | 59.97843 | 26.33552 | 36100 ft | 475 kts | 79° |
| 2026-05-04 12:33 | 59.98566 | 26.39956 | 35718 ft | 471 kts | 79° |
| 2026-05-04 12:33 | 59.99281 | 26.46315 | 35354 ft | 468 kts | 79° |
| 2026-05-04 12:33 | 59.99988 | 26.52635 | 34977 ft | 465 kts | 79° |
| 2026-05-04 12:34 | 60.00689 | 26.58927 | 34591 ft | 462 kts | 80° |
| 2026-05-04 12:34 | 60.01381 | 26.65172 | 34205 ft | 460 kts | 80° |
| 2026-05-04 12:34 | 60.02069 | 26.71416 | 33819 ft | 458 kts | 80° |
| 2026-05-04 12:34 | 60.02750 | 26.77624 | 33435 ft | 456 kts | 80° |
| 2026-05-04 12:35 | 60.03424 | 26.83792 | 33055 ft | 454 kts | 80° |
| 2026-05-04 12:35 | 60.04096 | 26.89962 | 32649 ft | 453 kts | 81° |
| 2026-05-04 12:35 | 60.04764 | 26.96118 | 32259 ft | 451 kts | 81° |
| 2026-05-04 12:35 | 60.05401 | 27.02245 | 31888 ft | 449 kts | 82° |
| 2026-05-04 12:36 | 60.05968 | 27.08395 | 31497 ft | 447 kts | 83° |
| 2026-05-04 12:36 | 60.06495 | 27.14509 | 31134 ft | 444 kts | 83° |
| 2026-05-04 12:36 | 60.07010 | 27.20596 | 30768 ft | 443 kts | 83° |
| 2026-05-04 12:36 | 60.07521 | 27.26648 | 30408 ft | 441 kts | 83° |
| 2026-05-04 12:37 | 60.08037 | 27.32690 | 30044 ft | 438 kts | 83° |
| 2026-05-04 12:37 | 60.08549 | 27.38687 | 29691 ft | 436 kts | 83° |
| 2026-05-04 12:37 | 60.09059 | 27.44660 | 29331 ft | 434 kts | 83° |
| 2026-05-04 12:37 | 60.09566 | 27.50604 | 28964 ft | 432 kts | 83° |
| 2026-05-04 12:38 | 60.10069 | 27.56521 | 28597 ft | 429 kts | 83° |
| 2026-05-04 12:38 | 60.10568 | 27.62409 | 28230 ft | 427 kts | 83° |
| 2026-05-04 12:38 | 60.11060 | 27.68256 | 27866 ft | 424 kts | 83° |
| 2026-05-04 12:38 | 60.11547 | 27.74063 | 27503 ft | 422 kts | 83° |
| 2026-05-04 12:39 | 60.12023 | 27.79788 | 27143 ft | 420 kts | 83° |
| 2026-05-04 12:39 | 60.12500 | 27.85553 | 26782 ft | 418 kts | 83° |
| 2026-05-04 12:39 | 60.12972 | 27.91277 | 26423 ft | 416 kts | 83° |
| 2026-05-04 12:39 | 60.13288 | 27.95141 | 26183 ft | 414 kts | 83° |
| 2026-05-04 12:40 | 60.13902 | 28.02672 | 25708 ft | 411 kts | 83° |
| 2026-05-04 12:40 | 60.14212 | 28.06496 | 25466 ft | 410 kts | 83° |
| 2026-05-04 12:40 | 60.14665 | 28.12121 | 25112 ft | 407 kts | 83° |
| 2026-05-04 12:40 | 60.15114 | 28.17729 | 24768 ft | 405 kts | 83° |
| 2026-05-04 12:41 | 60.15558 | 28.23289 | 24410 ft | 403 kts | 83° |
| 2026-05-04 12:41 | 60.15991 | 28.28756 | 24063 ft | 401 kts | 83° |
| 2026-05-04 12:41 | 60.16426 | 28.34264 | 23716 ft | 398 kts | 83° |
| 2026-05-04 12:41 | 60.16862 | 28.39820 | 23364 ft | 396 kts | 83° |
| 2026-05-04 12:42 | 60.17286 | 28.45245 | 23021 ft | 394 kts | 83° |
| 2026-05-04 12:42 | 60.17709 | 28.50682 | 22687 ft | 392 kts | 83° |
| 2026-05-04 12:42 | 60.18124 | 28.56076 | 22342 ft | 390 kts | 83° |
| 2026-05-04 12:42 | 60.18473 | 28.61401 | 22002 ft | 387 kts | 90° |
| 2026-05-04 12:43 | 60.18419 | 28.66758 | 21661 ft | 380 kts | 102° |
| 2026-05-04 12:43 | 60.17995 | 28.71961 | 21359 ft | 376 kts | 105° |
| 2026-05-04 12:43 | 60.17515 | 28.77166 | 21012 ft | 374 kts | 105° |
| 2026-05-04 12:43 | 60.17034 | 28.82296 | 20679 ft | 372 kts | 105° |
| 2026-05-04 12:44 | 60.16562 | 28.87391 | 20349 ft | 370 kts | 105° |
| 2026-05-04 12:44 | 60.16100 | 28.92467 | 20016 ft | 369 kts | 105° |
| 2026-05-04 12:44 | 60.15644 | 28.97537 | 19686 ft | 367 kts | 105° |
| 2026-05-04 12:44 | 60.15206 | 29.02423 | 19368 ft | 366 kts | 105° |
| 2026-05-04 12:45 | 60.14766 | 29.07328 | 19049 ft | 364 kts | 105° |
| 2026-05-04 12:45 | 60.14318 | 29.12308 | 18726 ft | 362 kts | 105° |
| 2026-05-04 12:45 | 60.13870 | 29.17270 | 18402 ft | 360 kts | 105° |
| 2026-05-04 12:45 | 60.13421 | 29.22214 | 18081 ft | 359 kts | 105° |
| 2026-05-04 12:46 | 60.12972 | 29.27125 | 17762 ft | 357 kts | 105° |
| 2026-05-04 12:46 | 60.12525 | 29.31993 | 17448 ft | 355 kts | 105° |
| 2026-05-04 12:46 | 60.12076 | 29.36857 | 17126 ft | 353 kts | 105° |
| 2026-05-04 12:46 | 60.11629 | 29.41687 | 16814 ft | 352 kts | 105° |
| 2026-05-04 12:47 | 60.11182 | 29.46499 | 16499 ft | 350 kts | 105° |
| 2026-05-04 12:47 | 60.10735 | 29.51279 | 16184 ft | 348 kts | 105° |
| 2026-05-04 12:47 | 60.10289 | 29.56035 | 15883 ft | 347 kts | 105° |
| 2026-05-04 12:47 | 60.09844 | 29.60782 | 15575 ft | 345 kts | 105° |
| 2026-05-04 12:48 | 60.09400 | 29.65494 | 15265 ft | 344 kts | 105° |
| 2026-05-04 12:48 | 60.08959 | 29.70144 | 14960 ft | 343 kts | 105° |
| 2026-05-04 12:49 | 60.08857 | 29.71216 | 14890 ft | 343 kts | 105° |
| 2026-05-04 12:49 | 60.08490 | 29.75062 | 14641 ft | 342 kts | 105° |
| 2026-05-04 12:49 | 60.08155 | 29.78567 | 14404 ft | 341 kts | 105° |
| 2026-05-04 12:49 | 60.07709 | 29.83232 | 14083 ft | 340 kts | 105° |
| 2026-05-04 12:50 | 60.07264 | 29.87873 | 13789 ft | 339 kts | 105° |
| 2026-05-04 12:50 | 60.06820 | 29.92477 | 13481 ft | 337 kts | 105° |
| 2026-05-04 12:50 | 60.06375 | 29.97077 | 13181 ft | 336 kts | 105° |
| 2026-05-04 12:50 | 60.05931 | 30.01652 | 12879 ft | 334 kts | 105° |
| 2026-05-04 12:51 | 60.05453 | 30.06201 | 12546 ft | 333 kts | 110° |
| 2026-05-04 12:51 | 60.04801 | 30.10658 | 12153 ft | 334 kts | 114° |
| 2026-05-04 12:51 | 60.04075 | 30.15082 | 11764 ft | 335 kts | 114° |
| 2026-05-04 12:51 | 60.03333 | 30.19522 | 11368 ft | 337 kts | 114° |
| 2026-05-04 12:52 | 60.02597 | 30.23979 | 10972 ft | 338 kts | 113° |
| 2026-05-04 12:52 | 60.01865 | 30.28461 | 10570 ft | 339 kts | 113° |
| 2026-05-04 12:52 | 60.01138 | 30.32956 | 10169 ft | 340 kts | 112° |
| 2026-05-04 12:52 | 60.00412 | 30.37464 | 9758 ft | 340 kts | 112° |
| 2026-05-04 12:53 | 59.99705 | 30.41869 | 9587 ft | 323 kts | 112° |
| 2026-05-04 12:53 | 59.99045 | 30.46006 | 9557 ft | 303 kts | 112° |
| 2026-05-04 12:53 | 59.98411 | 30.49929 | 9342 ft | 293 kts | 112° |
| 2026-05-04 12:53 | 59.97798 | 30.53710 | 9255 ft | 275 kts | 113° |
| 2026-05-04 12:54 | 59.97230 | 30.57227 | 9134 ft | 258 kts | 113° |
| 2026-05-04 12:54 | 59.96500 | 30.60289 | 8955 ft | 232 kts | 138° |
| 2026-05-04 12:54 | 59.95298 | 30.62230 | 8641 ft | 217 kts | 157° |
| 2026-05-04 12:54 | 59.93965 | 30.63577 | 8204 ft | 215 kts | 161° |
| 2026-05-04 12:55 | 59.92613 | 30.64828 | 7785 ft | 213 kts | 161° |
| 2026-05-04 12:55 | 59.91267 | 30.66070 | 7387 ft | 212 kts | 161° |
| 2026-05-04 12:55 | 59.89936 | 30.67312 | 6979 ft | 211 kts | 160° |
| 2026-05-04 12:55 | 59.88614 | 30.68555 | 6580 ft | 209 kts | 160° |
| 2026-05-04 12:56 | 59.87304 | 30.69793 | 6196 ft | 207 kts | 160° |
| 2026-05-04 12:56 | 59.86034 | 30.70995 | 5995 ft | 194 kts | 160° |
| 2026-05-04 12:56 | 59.84857 | 30.72116 | 5770 ft | 184 kts | 160° |
| 2026-05-04 12:56 | 59.83713 | 30.73199 | 5392 ft | 184 kts | 160° |
| 2026-05-04 12:57 | 59.82558 | 30.74292 | 4988 ft | 184 kts | 160° |
| 2026-05-04 12:57 | 59.81386 | 30.75231 | 4620 ft | 178 kts | 177° |
| 2026-05-04 12:57 | 59.80231 | 30.74775 | 4180 ft | 170 kts | 215° |
| 2026-05-04 12:57 | 59.79409 | 30.73150 | 3751 ft | 170 kts | 241° |
| 2026-05-04 12:58 | 59.78907 | 30.71042 | 3381 ft | 168 kts | 242° |
| 2026-05-04 12:58 | 59.78397 | 30.69011 | 3137 ft | 161 kts | 242° |
| 2026-05-04 12:58 | 59.77889 | 30.66986 | 2998 ft | 165 kts | 242° |
| 2026-05-04 12:58 | 59.77369 | 30.64904 | 2870 ft | 170 kts | 242° |
| 2026-05-04 12:59 | 59.76842 | 30.62782 | 2727 ft | 171 kts | 242° |
| 2026-05-04 12:59 | 59.76316 | 30.60666 | 2613 ft | 171 kts | 242° |
| 2026-05-04 12:59 | 59.76003 | 30.58408 | 2496 ft | 174 kts | 273° |
| 2026-05-04 12:59 | 59.76264 | 30.56038 | 2493 ft | 178 kts | 283° |
| 2026-05-04 13:00 | 59.76643 | 30.53716 | 2428 ft | 174 kts | 284° |
| 2026-05-04 13:00 | 59.76989 | 30.51519 | 2213 ft | 162 kts | 283° |
| 2026-05-04 13:00 | 59.77300 | 30.49423 | 2034 ft | 158 kts | 282° |
| 2026-05-04 13:00 | 59.77607 | 30.47333 | 1819 ft | 157 kts | 283° |
| 2026-05-04 13:01 | 59.77913 | 30.45244 | 1617 ft | 158 kts | 283° |
| 2026-05-04 13:01 | 59.78221 | 30.43155 | 1407 ft | 157 kts | 283° |
| 2026-05-04 13:01 | 59.78526 | 30.41076 | 1203 ft | 157 kts | 284° |
| 2026-05-04 13:01 | 59.78834 | 30.38987 | 980 ft | 156 kts | 284° |
| 2026-05-04 13:02 | 59.79138 | 30.36921 | 779 ft | 156 kts | 284° |
| 2026-05-04 13:02 | 59.79434 | 30.34883 | 584 ft | 152 kts | 284° |
| 2026-05-04 13:02 | 59.79729 | 30.32885 | 393 ft | 148 kts | 285° |
| 2026-05-04 13:02 | 59.80022 | 30.30933 | 161 ft | 148 kts | 286° |
| 2026-05-04 13:03 | 59.80301 | 30.29027 | 76 ft | 127 kts | 287° |
| 2026-05-04 13:03 | 59.80497 | 30.27735 | 74 ft | 86 kts | 287° |
| 2026-05-04 13:03 | 59.80625 | 30.26875 | 82 ft | 43 kts | 287° |
| 2026-05-04 13:03 | 59.80606 | 30.26645 | 81 ft | 15 kts | 199° |
| 2026-05-04 13:04 | 59.80533 | 30.26602 | 84 ft | 11 kts | 198° |
| 2026-05-04 13:04 | 59.80463 | 30.26570 | 82 ft | 10 kts | 175° |
| 2026-05-04 13:04 | 59.80422 | 30.26673 | 80 ft | 10 kts | 114° |
| 2026-05-04 13:04 | 59.80385 | 30.26752 | 85 ft | 10 kts | 173° |
| 2026-05-04 13:05 | 59.80319 | 30.26716 | 80 ft | 9 kts | 198° |
| 2026-05-04 13:05 | 59.80257 | 30.26680 | 84 ft | 9 kts | 196° |
| 2026-05-04 13:05 | 59.80195 | 30.26644 | 85 ft | 11 kts | 196° |
| 2026-05-04 13:05 | 59.80115 | 30.26588 | 84 ft | 6 kts | 224° |
| 2026-05-04 13:06 | 59.80106 | 30.26510 | 80 ft | 6 kts | 283° |
| 2026-05-04 13:06 | 59.80111 | 30.26480 | 80 ft | 1 kts | 286° |
| 2026-05-04 13:06 | 59.80111 | 30.26476 | 80 ft | 0 kts | 286° |